Impacts TAF Board
For situational awareness. Not to be used for flight planning purposes.
IDs:

KSTL - St Louis/Lambert Int, MO, US

Issued at 2330 UTC 16 Jul 2019
Updated at 0054 UTC 17 Jul 2019
Potential Impact None Slight Moderate High
Time<<17/13Z 17/14Z 17/15Z 17/16Z 17/17Z 17/18Z 17/19Z 17/20Z 17/21Z 17/22Z 17/23Z 18/00Z 18/01Z>>
Type PRVL PRVL PRVL PRVL PRVL PRVL PRVL PRVL PRVL PRVL PRVL PRVL PRVL
VIS >6 >6 >6 >6 >6 >6 >6 >6 >6 >6 >6 >6 >6
CIG 80 80 80 80 80 -- -- -- -- -- -- -- --
Cover BKN BKN BKN BKN BKN SCT SCT SCT SCT SCT SCT SCT FEW
FltCat VFR VFR VFR VFR VFR VFR VFR VFR VFR VFR VFR VFR VFR
WX -- -- -- -- -- -- -- -- -- -- -- -- --
WDir VRB VRB VRB VRB VRB 200 200 200 200 200 200 200 170
WSpd 4 4 4 4 4 8 8 8 8 8 8 8 5
WGst -- -- -- -- -- -- -- -- -- -- -- -- --
Raw TAF
KSTL 162330Z 1700/1806 VRB04KT P6SM BKN080
  FM171800 20008KT P6SM SCT050
  FM180100 17005KT P6SM FEW050


METAR Board
Radar Display
Forecast Discussion
For situational awareness. Not to be used for flight planning purposes.